Time;durP1;ratioP1;P1;durP2;ratioP2;P2;SDS_P1;SDS_P2;PMS_P1;PMS_P2;Temp;Humidity;BMP_temperature;BMP_pressure;BME280_temperature;BME280_humidity;BME280_pressure;Samples;Min_cycle;Max_cycle;Signal;HPM_P1;HPM_P2
2022/09/18 00:00:41;;;;;;;1.43;1.10;;;12.00;99.90;;;;;;5015084;28;20443;-75
2022/09/18 00:03:07;;;;;;;4.60;1.93;;;12.00;99.90;;;;;;5014891;28;20184;-74
2022/09/18 00:05:36;;;;;;;2.03;1.20;;;12.10;99.90;;;;;;5014561;28;20520;-75
2022/09/18 00:08:02;;;;;;;2.20;1.30;;;12.00;99.90;;;;;;5015229;28;20637;-74
2022/09/18 00:10:28;;;;;;;2.03;1.43;;;12.00;99.90;;;;;;5014996;28;20415;-75
2022/09/18 00:12:53;;;;;;;3.00;1.23;;;12.00;99.90;;;;;;5014688;28;20395;-74
2022/09/18 00:15:19;;;;;;;1.40;1.03;;;12.00;99.90;;;;;;5013305;28;20192;-74
2022/09/18 00:17:44;;;;;;;1.43;0.90;;;12.10;99.90;;;;;;5014960;28;20556;-74
2022/09/18 00:20:10;;;;;;;8.17;1.13;;;12.10;99.90;;;;;;5014662;28;20175;-73
2022/09/18 00:22:35;;;;;;;5.97;1.50;;;12.10;99.90;;;;;;5014808;28;20175;-74
2022/09/18 00:25:01;;;;;;;2.67;1.20;;;12.10;99.90;;;;;;5014567;28;20262;-75
2022/09/18 00:27:26;;;;;;;1.87;1.13;;;12.10;99.90;;;;;;5014695;28;20211;-74
2022/09/18 00:29:52;;;;;;;3.13;1.13;;;12.10;99.90;;;;;;5014322;28;20656;-74
2022/09/18 00:32:17;;;;;;;8.77;1.10;;;12.10;99.90;;;;;;5013338;28;20200;-75
2022/09/18 00:34:43;;;;;;;2.63;1.50;;;12.00;99.90;;;;;;5014209;28;20188;-75
2022/09/18 00:37:08;;;;;;;3.00;1.00;;;12.00;99.90;;;;;;5014443;28;20256;-75
2022/09/18 00:39:34;;;;;;;2.30;1.60;;;12.00;99.90;;;;;;5014635;28;20164;-75
2022/09/18 00:42:00;;;;;;;3.13;1.17;;;12.00;99.90;;;;;;5014438;28;20175;-75
2022/09/18 00:44:36;;;;;;;2.50;1.30;;;12.00;99.90;;;;;;5012783;28;20237;-74
2022/09/18 00:47:10;;;;;;;5.83;1.50;;;12.00;99.90;;;;;;5014389;28;20168;-75
2022/09/18 00:49:56;;;;;;;2.83;1.40;;;12.00;99.90;;;;;;5014482;28;20402;-73
2022/09/18 00:52:26;;;;;;;1.60;1.27;;;12.00;99.90;;;;;;5014142;28;20455;-75
2022/09/18 00:55:03;;;;;;;6.77;1.77;;;12.00;99.90;;;;;;5013981;28;20412;-75
2022/09/18 00:57:32;;;;;;;5.27;3.00;;;12.00;99.90;;;;;;5014316;28;20394;-76
2022/09/18 01:00:03;;;;;;;1.67;1.23;;;12.00;99.90;;;;;;5014121;28;20418;-74
2022/09/18 01:02:28;;;;;;;5.03;1.77;;;12.00;99.90;;;;;;5012844;28;20941;-74
2022/09/18 01:04:54;;;;;;;2.30;1.20;;;12.00;99.90;;;;;;5012430;28;20521;-75
2022/09/18 01:07:47;;;;;;;2.70;1.33;;;11.90;99.90;;;;;;5012708;28;20187;-76
2022/09/18 01:10:32;;;;;;;3.77;1.07;;;11.90;99.90;;;;;;5013915;28;20434;-76
2022/09/18 01:13:00;;;;;;;3.33;1.60;;;11.90;99.90;;;;;;5013899;28;20383;-76
2022/09/18 01:15:38;;;;;;;2.93;1.30;;;11.90;99.90;;;;;;5012230;28;20431;-76
2022/09/18 01:18:22;;;;;;;6.00;1.50;;;11.90;99.90;;;;;;5013869;28;20753;-76
2022/09/18 01:21:06;;;;;;;4.47;3.00;;;11.90;99.90;;;;;;5013793;28;20838;-75
2022/09/18 01:24:09;;;;;;;2.17;1.30;;;12.00;99.90;;;;;;5013759;28;20493;-74
2022/09/18 01:26:55;;;;;;;3.50;1.10;;;12.00;99.90;;;;;;5013516;28;20422;-75
2022/09/18 01:29:27;;;;;;;1.60;1.50;;;12.00;99.90;;;;;;5013528;28;20409;-75
2022/09/18 01:32:07;;;;;;;1.70;0.90;;;12.00;99.90;;;;;;5013540;28;20951;-74
2022/09/18 01:34:47;;;;;;;7.80;1.70;;;12.00;99.90;;;;;;5012952;28;20391;-75
2022/09/18 01:37:35;;;;;;;1.30;0.87;;;12.00;99.90;;;;;;5012174;28;20418;-75
2022/09/18 01:40:06;;;;;;;3.63;1.37;;;12.00;99.90;;;;;;5012473;28;20418;-74
2022/09/18 01:42:32;;;;;;;1.77;1.10;;;12.00;99.90;;;;;;5013409;28;20542;-74
2022/09/18 01:45:01;;;;;;;3.40;1.30;;;12.00;99.90;;;;;;5011654;28;20474;-75
2022/09/18 01:47:31;;;;;;;5.07;1.37;;;12.00;99.90;;;;;;5013214;28;20407;-74
2022/09/18 01:49:59;;;;;;;2.80;1.13;;;12.00;99.90;;;;;;5012939;28;20773;-74
2022/09/18 01:52:32;;;;;;;1.83;1.00;;;12.00;99.90;;;;;;5011814;28;20462;-75
2022/09/18 01:55:00;;;;;;;5.13;1.43;;;12.00;99.90;;;;;;5012775;28;20493;-74
2022/09/18 01:57:38;;;;;;;3.50;1.00;;;12.00;99.90;;;;;;5013112;28;20426;-74
2022/09/18 02:00:08;;;;;;;1.67;1.10;;;12.00;99.90;;;;;;5013126;28;20402;-74
2022/09/18 02:02:41;;;;;;;1.80;1.33;;;12.00;99.90;;;;;;5012080;28;20517;-75
2022/09/18 02:05:13;;;;;;;2.43;1.00;;;12.00;99.90;;;;;;5012549;28;20939;-75
2022/09/18 02:08:01;;;;;;;3.17;1.27;;;12.00;99.90;;;;;;5013008;28;20840;-75
2022/09/18 02:10:32;;;;;;;2.90;1.30;;;12.00;99.90;;;;;;5012954;28;20784;-76
2022/09/18 02:13:00;;;;;;;2.07;1.50;;;12.00;99.90;;;;;;5011718;28;20752;-75
2022/09/18 02:15:29;;;;;;;4.33;1.57;;;12.00;99.90;;;;;;5012266;28;20769;-75
2022/09/18 02:18:04;;;;;;;4.13;1.43;;;12.00;99.90;;;;;;5011305;28;20462;-75
2022/09/18 02:20:33;;;;;;;2.73;1.43;;;12.00;99.90;;;;;;5012647;28;20775;-75
2022/09/18 02:23:04;;;;;;;1.57;1.40;;;12.10;99.90;;;;;;5012718;28;20499;-76
2022/09/18 02:25:43;;;;;;;3.53;1.40;;;12.00;99.90;;;;;;5012423;28;20447;-76
2022/09/18 02:28:12;;;;;;;2.13;1.67;;;12.10;99.90;;;;;;5012683;28;20438;-74
2022/09/18 02:30:38;;;;;;;3.97;1.47;;;12.00;99.90;;;;;;5012453;28;20446;-74
2022/09/18 02:33:21;;;;;;;2.23;2.03;;;12.10;99.90;;;;;;5012550;28;20438;-74
2022/09/18 02:35:57;;;;;;;2.83;1.90;;;12.00;99.90;;;;;;5012280;28;20447;-74
2022/09/18 02:38:36;;;;;;;2.03;1.83;;;12.00;99.90;;;;;;5012529;28;20432;-75
2022/09/18 02:41:35;;;;;;;4.27;1.97;;;12.00;99.90;;;;;;5011031;28;20441;-74
2022/09/18 02:44:12;;;;;;;3.73;2.23;;;12.10;99.90;;;;;;5012454;28;20775;-75
2022/09/18 02:46:38;;;;;;;2.57;2.10;;;12.10;99.90;;;;;;5012212;28;20426;-75
2022/09/18 02:49:38;;;;;;;9.47;5.70;;;12.10;99.90;;;;;;5012474;28;20395;-75
2022/09/18 02:52:22;;;;;;;3.30;1.70;;;12.00;99.90;;;;;;5011615;28;20222;-75
2022/09/18 02:55:05;;;;;;;3.23;2.30;;;12.00;99.90;;;;;;5010692;28;20443;-75
2022/09/18 02:57:39;;;;;;;2.37;1.80;;;12.00;99.90;;;;;;5012102;28;20501;-76
2022/09/18 03:00:10;;;;;;;3.73;2.17;;;12.00;99.90;;;;;;5011003;28;20922;-75
2022/09/18 03:02:37;;;;;;;4.03;2.03;;;12.00;99.90;;;;;;5012190;28;20423;-75
2022/09/18 03:05:02;;;;;;;2.40;1.87;;;12.00;99.90;;;;;;5011759;28;20430;-75
2022/09/18 03:07:28;;;;;;;3.00;1.83;;;12.00;99.90;;;;;;5012117;28;20900;-75
2022/09/18 03:09:53;;;;;;;2.60;1.90;;;12.00;99.90;;;;;;5012229;28;20251;-74
2022/09/18 03:12:19;;;;;;;3.10;1.60;;;12.00;99.90;;;;;;5012051;28;20199;-75
2022/09/18 03:14:44;;;;;;;2.10;1.73;;;11.90;99.90;;;;;;5011779;28;20215;-75
2022/09/18 03:17:10;;;;;;;4.33;1.40;;;11.90;99.90;;;;;;5010740;28;20176;-75
2022/09/18 03:19:35;;;;;;;1.70;1.43;;;11.90;99.90;;;;;;5012093;28;20255;-75
2022/09/18 03:22:01;;;;;;;1.60;1.30;;;11.90;99.90;;;;;;5012053;28;20175;-75
2022/09/18 03:24:26;;;;;;;2.37;1.60;;;11.90;99.90;;;;;;5011677;28;20255;-74
2022/09/18 03:26:52;;;;;;;1.87;1.70;;;11.90;99.90;;;;;;5012215;28;20161;-75
2022/09/18 03:29:18;;;;;;;2.20;1.40;;;11.90;99.90;;;;;;5012100;28;20176;-75
2022/09/18 03:31:44;;;;;;;1.60;1.10;;;11.90;99.90;;;;;;5011914;28;20456;-76
2022/09/18 03:34:09;;;;;;;2.40;1.40;;;11.90;99.90;;;;;;5011971;28;20168;-75
2022/09/18 03:36:35;;;;;;;3.30;1.53;;;11.90;99.90;;;;;;5012054;28;20185;-74
2022/09/18 03:39:00;;;;;;;2.27;1.37;;;11.90;99.90;;;;;;5011942;28;20169;-74
2022/09/18 03:41:26;;;;;;;11.53;3.80;;;11.90;99.90;;;;;;5011915;28;20602;-75
2022/09/18 03:43:52;;;;;;;1.87;1.40;;;11.90;99.90;;;;;;5011768;28;20711;-75
2022/09/18 03:46:22;;;;;;;2.37;1.20;;;11.90;99.90;;;;;;5011921;28;20207;-76
2022/09/18 03:48:51;;;;;;;4.57;2.43;;;11.90;99.90;;;;;;5012364;28;20479;-74
2022/09/18 03:51:20;;;;;;;1.90;1.57;;;11.90;99.90;;;;;;5011947;28;20793;-76
2022/09/18 03:53:46;;;;;;;3.33;2.60;;;11.90;99.90;;;;;;5011640;28;20411;-76
2022/09/18 03:56:12;;;;;;;6.97;5.23;;;11.90;99.90;;;;;;5011697;28;20500;-76
2022/09/18 03:58:39;;;;;;;1.93;1.10;;;11.90;99.90;;;;;;5011756;28;20958;-74
2022/09/18 04:01:05;;;;;;;1.53;1.43;;;12.00;99.90;;;;;;5011968;28;20403;-76
2022/09/18 04:03:31;;;;;;;3.00;1.30;;;11.90;99.90;;;;;;5012754;28;20422;-75
2022/09/18 04:05:57;;;;;;;1.80;0.93;;;11.90;99.90;;;;;;5014803;28;20438;-75
2022/09/18 04:08:22;;;;;;;2.03;1.30;;;11.90;99.90;;;;;;5015141;28;20254;-76
2022/09/18 04:10:48;;;;;;;3.37;1.03;;;11.90;99.90;;;;;;5015219;28;20443;-76
2022/09/18 04:13:15;;;;;;;1.60;1.20;;;11.90;99.90;;;;;;5014979;28;20258;-75
2022/09/18 04:15:40;;;;;;;3.77;1.47;;;11.90;99.90;;;;;;5014735;28;20184;-75
2022/09/18 04:18:06;;;;;;;1.40;1.00;;;11.90;99.90;;;;;;5014851;28;20896;-74
2022/09/18 04:20:32;;;;;;;1.90;1.43;;;11.90;99.90;;;;;;5015062;28;20160;-74
2022/09/18 04:22:57;;;;;;;2.07;1.30;;;12.00;99.90;;;;;;5015104;28;20176;-76
2022/09/18 04:25:23;;;;;;;2.50;2.00;;;12.00;99.90;;;;;;5014212;28;20661;-74
2022/09/18 04:27:48;;;;;;;1.40;1.27;;;12.00;99.90;;;;;;5014759;28;20648;-73
2022/09/18 04:30:14;;;;;;;2.37;1.87;;;12.00;99.90;;;;;;5014789;28;20176;-75
2022/09/18 04:32:42;;;;;;;3.67;1.67;;;12.00;99.90;;;;;;5014696;28;20200;-75
2022/09/18 04:35:08;;;;;;;2.00;1.90;;;12.00;99.90;;;;;;5014464;28;20180;-75
2022/09/18 04:37:33;;;;;;;2.70;1.90;;;12.00;99.90;;;;;;5014616;28;20760;-75
2022/09/18 04:39:59;;;;;;;7.00;2.43;;;12.00;99.90;;;;;;5014580;28;20169;-75
2022/09/18 04:42:24;;;;;;;2.27;1.67;;;12.00;99.90;;;;;;5014536;28;20190;-75
2022/09/18 04:44:50;;;;;;;2.40;2.00;;;12.00;99.90;;;;;;5014050;28;20188;-74
2022/09/18 04:47:15;;;;;;;2.90;1.80;;;12.00;99.90;;;;;;5014081;28;20164;-76
2022/09/18 04:49:41;;;;;;;3.90;2.40;;;12.00;99.90;;;;;;5014237;28;20168;-75
2022/09/18 04:52:06;;;;;;;4.80;1.70;;;12.00;99.90;;;;;;5014283;28;20188;-74
2022/09/18 04:54:32;;;;;;;2.50;1.57;;;12.00;99.90;;;;;;5013866;28;20183;-74
2022/09/18 04:56:57;;;;;;;2.87;2.20;;;12.10;99.90;;;;;;5014190;28;20160;-73
2022/09/18 04:59:23;;;;;;;2.20;1.97;;;12.00;99.90;;;;;;5014154;28;20659;-75
2022/09/18 05:01:48;;;;;;;2.03;1.70;;;12.00;99.90;;;;;;5014076;28;20176;-75
2022/09/18 05:04:15;;;;;;;2.60;1.80;;;12.00;99.90;;;;;;5013949;28;20715;-75
2022/09/18 05:06:41;;;;;;;3.90;2.20;;;12.00;99.90;;;;;;5014014;28;20184;-75
2022/09/18 05:09:06;;;;;;;4.77;2.00;;;12.00;99.90;;;;;;5013812;28;20414;-74
2022/09/18 05:11:32;;;;;;;2.80;1.63;;;12.00;99.90;;;;;;5013837;28;20274;-73
2022/09/18 05:13:58;;;;;;;2.40;1.13;;;12.00;99.90;;;;;;5013814;28;20168;-75
2022/09/18 05:16:24;;;;;;;1.63;1.50;;;12.00;99.90;;;;;;5013478;28;20184;-74
2022/09/18 05:18:50;;;;;;;2.70;2.03;;;12.00;99.90;;;;;;5013963;28;20399;-73
2022/09/18 05:21:16;;;;;;;4.97;2.13;;;12.00;99.90;;;;;;5013482;28;20757;-74
2022/09/18 05:23:44;;;;;;;2.70;2.17;;;12.00;99.90;;;;;;5013698;28;20403;-74
2022/09/18 05:26:10;;;;;;;3.13;1.53;;;12.00;99.90;;;;;;5013343;28;20196;-74
2022/09/18 05:28:36;;;;;;;2.07;1.10;;;12.00;99.90;;;;;;5013702;28;20415;-74
2022/09/18 05:31:02;;;;;;;5.73;1.20;;;12.00;99.90;;;;;;5013349;28;20494;-74
2022/09/18 05:33:28;;;;;;;1.80;1.20;;;12.00;99.90;;;;;;5013680;28;20431;-74
2022/09/18 05:35:55;;;;;;;1.40;1.20;;;12.00;99.90;;;;;;5013111;28;20184;-74
2022/09/18 05:38:21;;;;;;;1.77;1.07;;;12.10;99.90;;;;;;5013365;28;20407;-74
2022/09/18 05:40:47;;;;;;;2.90;1.30;;;12.10;99.90;;;;;;5013622;28;20461;-73
2022/09/18 05:43:13;;;;;;;4.33;1.63;;;12.10;99.90;;;;;;5013351;28;20403;-74
2022/09/18 05:45:39;;;;;;;1.80;1.00;;;12.20;99.90;;;;;;5012860;28;20954;-74
2022/09/18 05:48:05;;;;;;;2.03;1.53;;;12.10;99.90;;;;;;5013370;28;20645;-75
2022/09/18 05:50:32;;;;;;;1.50;1.40;;;12.20;99.90;;;;;;5011808;28;20547;-73
2022/09/18 05:53:02;;;;;;;3.60;1.60;;;12.20;99.90;;;;;;5013168;28;20425;-73
2022/09/18 05:55:28;;;;;;;3.00;1.73;;;12.20;99.90;;;;;;5011508;28;20431;-73
2022/09/18 05:57:55;;;;;;;7.73;2.53;;;12.20;99.90;;;;;;5013206;28;20934;-74
2022/09/18 06:00:22;;;;;;;1.40;1.23;;;12.20;99.90;;;;;;5013224;28;20836;-74
2022/09/18 06:02:52;;;;;;;5.13;1.80;;;12.20;99.90;;;;;;5013057;28;20426;-74
2022/09/18 06:05:17;;;;;;;2.83;1.97;;;12.20;99.90;;;;;;5012711;28;20455;-75
2022/09/18 06:07:42;;;;;;;2.40;1.67;;;12.10;99.90;;;;;;5017811;28;20773;-78
2022/09/18 06:10:08;;;;;;;1.70;1.40;;;12.20;99.90;;;;;;5014365;28;20204;-75
2022/09/18 06:12:34;;;;;;;5.10;2.40;;;12.20;99.90;;;;;;5013356;28;20281;-75
2022/09/18 06:14:59;;;;;;;5.40;1.60;;;12.30;99.90;;;;;;5012606;28;20188;-76
2022/09/18 06:17:25;;;;;;;1.80;1.40;;;12.30;99.90;;;;;;5013021;28;20218;-74
2022/09/18 06:19:50;;;;;;;1.60;1.23;;;12.30;99.90;;;;;;5011754;28;20176;-73
2022/09/18 06:22:16;;;;;;;5.43;1.77;;;12.40;99.90;;;;;;5011543;28;20176;-75
2022/09/18 06:24:41;;;;;;;3.70;1.60;;;12.50;99.90;;;;;;5012545;28;20617;-75
2022/09/18 06:27:07;;;;;;;1.40;1.23;;;12.50;99.90;;;;;;5012218;28;20251;-74
2022/09/18 06:29:32;;;;;;;2.33;1.23;;;12.60;99.90;;;;;;5011478;28;20176;-74
2022/09/18 06:31:58;;;;;;;2.23;1.50;;;12.60;99.90;;;;;;5012271;28;20188;-74
2022/09/18 06:34:24;;;;;;;6.30;2.33;;;12.60;99.90;;;;;;5011958;28;20172;-75
2022/09/18 06:36:49;;;;;;;3.23;2.00;;;12.70;99.90;;;;;;5012540;28;20199;-74
2022/09/18 06:39:15;;;;;;;3.30;1.53;;;12.60;99.90;;;;;;5012676;28;20711;-75
2022/09/18 06:41:41;;;;;;;5.70;1.50;;;12.70;99.90;;;;;;5012515;28;20450;-76
2022/09/18 06:44:07;;;;;;;5.33;2.23;;;12.70;99.90;;;;;;5012341;28;20268;-75
2022/09/18 06:46:33;;;;;;;3.03;1.63;;;12.80;99.90;;;;;;5012186;28;20455;-75
2022/09/18 06:48:58;;;;;;;4.03;1.70;;;12.80;99.90;;;;;;5012259;28;20215;-74
2022/09/18 06:51:24;;;;;;;1.90;1.40;;;12.90;99.90;;;;;;5012351;28;20196;-74
2022/09/18 06:53:49;;;;;;;1.63;1.33;;;12.90;99.90;;;;;;5012419;28;20528;-75
2022/09/18 06:56:15;;;;;;;2.27;1.63;;;13.00;99.90;;;;;;5011949;28;20184;-75
2022/09/18 06:58:40;;;;;;;4.80;1.60;;;13.10;99.90;;;;;;5011022;28;20515;-76
2022/09/18 07:01:06;;;;;;;1.70;1.30;;;13.30;99.90;;;;;;5012350;28;20168;-75
2022/09/18 07:03:31;;;;;;;6.07;1.40;;;13.40;99.90;;;;;;5012247;28;20180;-75
2022/09/18 07:05:57;;;;;;;3.47;1.67;;;13.40;99.90;;;;;;5012131;28;20192;-80
2022/09/18 07:08:22;;;;;;;6.00;1.67;;;13.40;99.90;;;;;;5013119;28;20180;-75
2022/09/18 07:10:48;;;;;;;2.13;1.03;;;13.40;99.90;;;;;;5012158;28;20261;-74
2022/09/18 07:13:13;;;;;;;1.57;1.00;;;13.50;99.90;;;;;;5012105;28;20200;-74
2022/09/18 07:15:39;;;;;;;2.70;1.23;;;13.60;99.90;;;;;;5011683;28;20192;-74
2022/09/18 07:18:06;;;;;;;2.40;1.40;;;13.70;99.90;;;;;;5012834;28;20176;-74
2022/09/18 07:20:32;;;;;;;1.60;1.10;;;13.70;99.90;;;;;;5012178;28;20607;-74
2022/09/18 07:22:59;;;;;;;3.70;1.93;;;13.80;99.90;;;;;;5012141;28;20403;-74
2022/09/18 07:25:26;;;;;;;3.00;0.90;;;14.00;99.90;;;;;;5011546;28;20195;-74
2022/09/18 07:27:52;;;;;;;4.80;1.13;;;14.10;99.90;;;;;;5012217;28;20461;-73
2022/09/18 07:30:18;;;;;;;1.80;1.43;;;14.10;99.90;;;;;;5011924;28;20403;-74
2022/09/18 07:32:44;;;;;;;2.57;0.90;;;14.10;99.90;;;;;;5011890;28;20203;-74
2022/09/18 07:35:10;;;;;;;3.97;1.30;;;14.00;99.90;;;;;;5010465;28;20812;-74
2022/09/18 07:37:37;;;;;;;3.17;0.93;;;14.00;99.90;;;;;;5012030;28;20660;-74
2022/09/18 07:40:04;;;;;;;1.50;1.00;;;14.00;99.90;;;;;;5015431;28;20579;-75
2022/09/18 07:42:30;;;;;;;2.00;1.33;;;14.10;99.90;;;;;;5015569;28;20500;-74
2022/09/18 07:44:55;;;;;;;3.30;1.33;;;14.20;99.90;;;;;;5015226;28;20848;-75
2022/09/18 07:47:23;;;;;;;2.30;1.10;;;14.40;99.90;;;;;;5015434;28;20180;-74
2022/09/18 07:49:48;;;;;;;2.03;1.00;;;14.50;99.90;;;;;;5015154;28;20518;-76
2022/09/18 07:52:14;;;;;;;1.67;0.97;;;14.70;99.90;;;;;;5015343;28;20451;-75
2022/09/18 07:54:40;;;;;;;4.20;1.30;;;14.90;99.90;;;;;;5015297;28;20175;-76
2022/09/18 07:57:05;;;;;;;1.87;1.33;;;15.10;99.90;;;;;;5015745;28;20180;-74
2022/09/18 07:59:30;;;;;;;2.47;0.93;;;15.50;99.90;;;;;;5015668;28;20164;-74
2022/09/18 08:01:56;;;;;;;4.73;1.20;;;15.90;99.90;;;;;;5015342;28;20242;-74
2022/09/18 08:04:22;;;;;;;2.30;0.93;;;16.20;99.90;;;;;;5014959;28;20653;-75
2022/09/18 08:06:52;;;;;;;3.53;1.07;;;16.50;99.90;;;;;;5015342;28;20450;-73
2022/09/18 08:09:18;;;;;;;1.50;1.00;;;16.80;99.90;;;;;;5014195;28;20714;-74
2022/09/18 08:11:44;;;;;;;3.37;1.10;;;16.80;99.90;;;;;;5015117;28;20458;-75
2022/09/18 08:14:10;;;;;;;2.13;0.90;;;16.90;99.90;;;;;;5015188;28;20912;-75
2022/09/18 08:16:35;;;;;;;4.10;0.90;;;16.90;99.90;;;;;;5014819;28;20668;-75
2022/09/18 08:19:01;;;;;;;2.43;0.87;;;17.00;99.90;;;;;;5015050;28;20225;-74
2022/09/18 08:21:29;;;;;;;1.70;0.90;;;17.20;99.90;;;;;;5014956;28;20252;-74
2022/09/18 08:23:55;;;;;;;1.40;1.20;;;17.20;99.90;;;;;;5014854;28;20415;-74
2022/09/18 08:26:20;;;;;;;1.60;1.00;;;17.70;99.90;;;;;;5014406;28;20510;-75
2022/09/18 08:28:46;;;;;;;1.60;0.77;;;18.10;99.90;;;;;;5014982;28;20425;-74
2022/09/18 08:31:12;;;;;;;1.70;1.10;;;18.60;99.90;;;;;;5013268;28;20200;-75
2022/09/18 08:33:38;;;;;;;3.43;1.30;;;18.80;99.90;;;;;;5014685;28;20434;-73
2022/09/18 08:36:04;;;;;;;1.47;1.00;;;19.00;99.90;;;;;;5014529;28;20300;-74
2022/09/18 08:38:29;;;;;;;1.77;1.30;;;18.70;99.90;;;;;;5014547;28;20685;-74
2022/09/18 08:41:06;;;;;;;8.37;1.60;;;18.40;99.90;;;;;;5014575;28;20183;-75
2022/09/18 08:44:06;;;;;;;1.80;1.40;;;18.10;99.90;;;;;;5014893;28;20196;-75
2022/09/18 08:46:38;;;;;;;5.27;1.70;;;17.80;99.90;;;;;;5013396;28;21010;-74
2022/09/18 08:49:33;;;;;;;2.30;2.07;;;17.50;99.90;;;;;;5014081;28;20403;-75
2022/09/18 08:52:10;;;;;;;3.63;1.90;;;17.10;99.90;;;;;;5014298;28;21014;-75
2022/09/18 08:54:43;;;;;;;4.33;1.70;;;16.90;99.90;;;;;;5012677;28;20421;-76
2022/09/18 08:57:17;;;;;;;2.00;1.47;;;16.90;99.90;;;;;;5014222;28;20443;-76
2022/09/18 08:59:54;;;;;;;1.30;1.03;;;16.90;99.90;;;;;;5014320;28;20505;-75
2022/09/18 09:02:48;;;;;;;1.90;1.70;;;16.80;99.90;;;;;;5014175;28;20788;-76
2022/09/18 09:05:17;;;;;;;2.23;1.60;;;16.80;99.90;;;;;;5013985;28;20473;-75
2022/09/18 09:08:01;;;;;;;5.97;1.80;;;17.00;99.90;;;;;;5014034;28;20776;-74
2022/09/18 09:10:49;;;;;;;3.10;1.20;;;17.00;99.90;;;;;;5014033;28;20414;-75
2022/09/18 09:13:52;;;;;;;2.33;1.23;;;16.90;99.90;;;;;;5014025;28;20415;-75
2022/09/18 09:16:38;;;;;;;4.43;1.70;;;16.70;99.90;;;;;;5013630;28;20426;-75
2022/09/18 09:19:27;;;;;;;2.30;1.40;;;16.40;99.90;;;;;;5013855;28;20403;-74
2022/09/18 09:22:04;;;;;;;3.00;1.60;;;16.00;99.90;;;;;;5013697;28;20399;-73
2022/09/18 09:24:31;;;;;;;4.70;1.20;;;15.60;99.90;;;;;;5013435;28;20399;-74
2022/09/18 09:27:01;;;;;;;1.60;1.20;;;15.40;99.90;;;;;;5013716;28;20454;-74
2022/09/18 09:29:30;;;;;;;2.27;1.13;;;15.40;99.90;;;;;;5013334;28;20830;-74
2022/09/18 09:32:06;;;;;;;2.23;1.47;;;15.50;99.90;;;;;;5013410;28;20451;-74
2022/09/18 09:34:49;;;;;;;1.83;1.20;;;15.70;99.90;;;;;;5011973;28;20414;-74
2022/09/18 09:37:19;;;;;;;1.97;1.10;;;15.80;99.90;;;;;;5013828;28;20758;-74
2022/09/18 09:39:52;;;;;;;1.70;1.03;;;15.70;99.90;;;;;;5013535;28;20415;-75
2022/09/18 09:42:37;;;;;;;2.73;1.47;;;15.50;99.90;;;;;;5013474;28;20415;-75
2022/09/18 09:45:15;;;;;;;1.70;1.60;;;15.40;99.90;;;;;;5013239;28;20517;-75
2022/09/18 09:48:15;;;;;;;1.80;1.40;;;15.60;99.90;;;;;;5013562;28;20399;-80
2022/09/18 09:51:07;;;;;;;1.93;1.63;;;15.90;99.90;;;;;;5012639;28;20423;-74
2022/09/18 09:53:33;;;;;;;2.03;1.20;;;16.60;99.90;;;;;;5012978;28;21108;-75
2022/09/18 09:56:22;;;;;;;4.20;1.90;;;17.30;99.90;;;;;;5012689;28;20434;-75
2022/09/18 09:58:57;;;;;;;2.40;0.83;;;17.80;99.90;;;;;;5013147;28;21151;-75
2022/09/18 10:01:38;;;;;;;2.70;1.30;;;18.20;99.90;;;;;;5012407;28;20494;-75
2022/09/18 10:04:27;;;;;;;3.57;2.60;;;18.30;99.90;;;;;;5012994;28;20413;-75
2022/09/18 10:07:05;;;;;;;2.17;1.60;;;18.00;99.90;;;;;;5011822;28;20414;-75
2022/09/18 10:09:55;;;;;;;1.90;1.00;;;17.90;99.90;;;;;;5012907;28;20399;-75
2022/09/18 10:12:31;;;;;;;1.43;1.07;;;17.70;99.90;;;;;;5011837;28;20816;-75
2022/09/18 10:15:12;;;;;;;1.67;1.07;;;17.40;99.90;;;;;;5011419;28;20434;-75
2022/09/18 10:17:40;;;;;;;1.60;1.00;;;17.00;99.90;;;;;;5011855;28;20411;-75
2022/09/18 10:20:10;;;;;;;1.73;1.17;;;16.70;99.90;;;;;;5012836;28;20745;-74
2022/09/18 10:22:37;;;;;;;1.20;0.73;;;16.20;99.90;;;;;;5012924;28;20847;-75
2022/09/18 10:25:11;;;;;;;1.63;1.00;;;15.80;99.90;;;;;;5012329;28;20843;-74
2022/09/18 10:27:37;;;;;;;1.87;1.50;;;15.30;99.90;;;;;;5012552;28;20410;-74
2022/09/18 10:30:11;;;;;;;14.80;6.07;;;15.00;99.90;;;;;;5011335;28;20418;-74
2022/09/18 10:32:42;;;;;;;8.50;1.27;;;15.00;99.90;;;;;;5012696;28;20227;-74
2022/09/18 10:35:37;;;;;;;4.23;1.00;;;14.80;99.90;;;;;;5012331;28;20509;-74
2022/09/18 10:38:03;;;;;;;1.20;1.10;;;14.70;99.90;;;;;;5012569;28;20403;-75
2022/09/18 10:40:31;;;;;;;1.90;1.23;;;14.70;99.90;;;;;;5012507;28;20403;-74
2022/09/18 10:42:58;;;;;;;2.53;1.50;;;14.70;99.90;;;;;;5012525;28;20439;-74
2022/09/18 10:45:27;;;;;;;2.03;1.40;;;14.60;99.90;;;;;;5010813;28;20431;-74
2022/09/18 10:48:05;;;;;;;3.53;1.27;;;14.70;99.90;;;;;;5012497;28;20407;-74
2022/09/18 10:50:31;;;;;;;1.70;1.20;;;14.70;99.90;;;;;;5012429;28;20461;-74
2022/09/18 10:53:19;;;;;;;2.40;1.60;;;14.70;99.90;;;;;;5012263;28;20416;-74
2022/09/18 10:55:49;;;;;;;1.40;1.07;;;14.80;99.90;;;;;;5012148;28;20180;-74
2022/09/18 10:58:15;;;;;;;2.20;1.10;;;14.90;99.90;;;;;;5012314;28;20391;-75
2022/09/18 11:00:47;;;;;;;2.33;1.07;;;15.10;99.90;;;;;;5012319;28;20441;-75
2022/09/18 11:03:39;;;;;;;2.07;1.33;;;15.40;99.90;;;;;;5012260;28;20940;-74
2022/09/18 11:06:23;;;;;;;1.80;0.90;;;15.60;99.90;;;;;;5012110;28;20418;-75
2022/09/18 11:08:52;;;;;;;3.07;1.30;;;15.50;99.90;;;;;;5012287;28;20431;-75
2022/09/18 11:11:23;;;;;;;1.60;1.10;;;15.40;99.90;;;;;;5012383;28;20450;-74
2022/09/18 11:13:55;;;;;;;1.30;1.13;;;15.10;99.90;;;;;;5015970;28;20403;-75
2022/09/18 11:16:27;;;;;;;1.50;1.10;;;14.80;99.90;;;;;;5016221;28;20423;-75
2022/09/18 11:19:08;;;;;;;2.10;1.17;;;14.50;99.90;;;;;;5016126;28;20453;-74
2022/09/18 11:21:42;;;;;;;3.47;1.20;;;14.30;99.90;;;;;;5016115;28;20399;-73
2022/09/18 11:24:17;;;;;;;1.50;1.20;;;14.30;99.90;;;;;;5014812;28;20418;-75
2022/09/18 11:26:52;;;;;;;1.50;1.03;;;14.20;99.90;;;;;;5014662;28;20826;-74
2022/09/18 11:29:27;;;;;;;1.93;1.40;;;14.20;99.90;;;;;;5015993;28;20750;-75
2022/09/18 11:32:17;;;;;;;1.70;1.40;;;14.20;99.90;;;;;;5015935;28;20813;-74
2022/09/18 11:34:51;;;;;;;1.77;1.30;;;14.30;99.90;;;;;;5015569;28;20391;-74
2022/09/18 11:37:35;;;;;;;1.60;1.40;;;14.20;99.90;;;;;;5015739;28;20403;-74
2022/09/18 11:40:27;;;;;;;2.50;1.60;;;14.10;99.90;;;;;;5015800;28;20391;-73
2022/09/18 11:42:54;;;;;;;2.50;1.43;;;14.10;99.90;;;;;;5015007;28;20466;-74
2022/09/18 11:46:01;;;;;;;2.67;1.30;;;14.10;99.90;;;;;;5015446;28;20989;-74
2022/09/18 11:48:55;;;;;;;1.90;1.33;;;14.10;99.90;;;;;;5015398;28;20415;-75
2022/09/18 11:51:44;;;;;;;6.60;2.10;;;14.10;99.90;;;;;;5026798;28;20457;-72
2022/09/18 11:54:26;;;;;;;3.33;1.30;;;14.20;99.90;;;;;;5030228;28;20940;-73
2022/09/18 11:56:57;;;;;;;2.40;1.57;;;14.30;99.90;;;;;;5035506;28;20440;-74
2022/09/18 11:59:36;;;;;;;3.90;1.77;;;14.40;99.90;;;;;;5034955;28;20806;-74
2022/09/18 12:02:35;;;;;;;4.03;1.47;;;14.60;99.90;;;;;;5034971;28;20475;-74
2022/09/18 12:05:14;;;;;;;1.50;1.20;;;14.80;99.90;;;;;;5033705;28;20480;-74
2022/09/18 12:08:12;;;;;;;2.23;2.03;;;15.30;99.90;;;;;;5034159;28;20457;-74
2022/09/18 12:10:59;;;;;;;1.87;1.40;;;15.60;99.90;;;;;;5034041;28;20420;-74
2022/09/18 12:13:45;;;;;;;2.03;1.30;;;16.00;99.90;;;;;;5034899;28;20744;-74
2022/09/18 12:16:20;;;;;;;3.67;1.93;;;16.50;99.90;;;;;;5032649;28;20584;-74
2022/09/18 12:19:02;;;;;;;2.90;1.43;;;17.00;99.90;;;;;;5030243;28;20429;-74
2022/09/18 12:21:45;;;;;;;1.50;1.17;;;17.60;99.90;;;;;;5032822;28;20442;-75
2022/09/18 12:24:15;;;;;;;2.17;1.97;;;18.20;99.90;;;;;;5033557;28;20409;-72
2022/09/18 12:26:53;;;;;;;6.00;1.70;;;18.80;99.90;;;;;;5034460;28;20513;-75
2022/09/18 12:29:35;;;;;;;1.83;1.40;;;19.00;99.90;;;;;;5033457;28;20908;-73
2022/09/18 12:32:11;;;;;;;4.07;1.47;;;19.00;99.90;;;;;;5014592;28;20458;-73
2022/09/18 12:34:43;;;;;;;3.10;1.10;;;18.90;99.90;;;;;;5029480;28;20423;-74
2022/09/18 12:37:17;;;;;;;3.47;1.70;;;18.60;99.90;;;;;;5021982;28;20434;-74
2022/09/18 12:40:00;;;;;;;5.20;1.50;;;18.60;99.90;;;;;;5033096;28;20992;-75
2022/09/18 12:42:35;;;;;;;1.60;1.37;;;18.60;99.90;;;;;;5032968;28;20776;-74
2022/09/18 12:45:38;;;;;;;2.23;1.40;;;18.50;99.90;;;;;;5033472;28;21146;-75
2022/09/18 12:48:06;;;;;;;2.20;1.27;;;18.00;99.90;;;;;;5034416;28;20410;-75
2022/09/18 12:50:49;;;;;;;1.40;1.10;;;17.90;99.90;;;;;;5034082;28;20959;-74
2022/09/18 12:53:38;;;;;;;3.53;1.73;;;17.40;99.90;;;;;;5031937;28;20446;-75
2022/09/18 12:56:32;;;;;;;1.67;1.13;;;17.00;99.90;;;;;;5030014;28;20820;-75
2022/09/18 12:59:03;;;;;;;2.80;1.27;;;16.60;99.90;;;;;;5033952;28;20433;-75
2022/09/18 13:01:40;;;;;;;1.63;1.03;;;16.20;99.90;;;;;;5033892;28;20946;-75
2022/09/18 13:04:28;;;;;;;2.13;1.33;;;15.90;99.90;;;;;;5033899;28;20398;-75
2022/09/18 13:07:12;;;;;;;2.00;1.40;;;15.60;99.90;;;;;;5033628;28;20412;-75
2022/09/18 13:10:14;;;;;;;2.70;1.10;;;15.30;99.90;;;;;;5032592;28;20484;-75
2022/09/18 13:12:59;;;;;;;2.67;1.73;;;15.10;99.90;;;;;;5033607;28;20490;-75